Time;durP1;ratioP1;P1;durP2;ratioP2;P2;SDS_P1;SDS_P2;PMS_P1;PMS_P2;Temp;Humidity;BMP_temperature;BMP_pressure;BME280_temperature;BME280_humidity;BME280_pressure;Samples;Min_cycle;Max_cycle;Signal;HPM_P1;HPM_P2
2022/04/13 00:01:41;;;;;;;4.60;3.57;;;9.30;78.70;;;;;;5072618;28;20432;-66
2022/04/13 00:04:07;;;;;;;3.63;3.33;;;9.40;78.80;;;;;;5074025;28;20784;-66
2022/04/13 00:06:38;;;;;;;6.10;2.93;;;9.30;78.90;;;;;;5074252;28;20207;-66
2022/04/13 00:09:07;;;;;;;5.00;3.33;;;9.30;79.00;;;;;;5073653;28;20259;-66
2022/04/13 00:11:33;;;;;;;5.33;3.80;;;9.20;79.10;;;;;;5073456;28;20459;-66
2022/04/13 00:13:58;;;;;;;6.10;2.80;;;9.20;79.60;;;;;;5073667;28;20396;-66
2022/04/13 00:16:24;;;;;;;5.63;3.27;;;9.20;79.80;;;;;;5073487;28;20404;-66
2022/04/13 00:18:49;;;;;;;3.33;2.43;;;9.10;80.00;;;;;;5073587;28;20508;-66
2022/04/13 00:21:15;;;;;;;4.17;3.20;;;9.20;80.50;;;;;;5073347;28;20280;-66
2022/04/13 00:23:40;;;;;;;4.17;3.63;;;9.10;80.30;;;;;;5073236;28;20166;-66
2022/04/13 00:26:06;;;;;;;4.60;3.43;;;9.10;80.80;;;;;;5073161;28;20638;-66
2022/04/13 00:28:31;;;;;;;4.10;3.20;;;9.10;81.00;;;;;;5072090;28;20181;-66
2022/04/13 00:30:57;;;;;;;4.40;3.77;;;9.00;81.30;;;;;;5073337;28;20680;-65
2022/04/13 00:33:23;;;;;;;4.17;3.77;;;9.00;81.60;;;;;;5073424;28;20688;-65
2022/04/13 00:35:48;;;;;;;3.50;3.17;;;8.90;81.70;;;;;;5073082;28;20408;-65
2022/04/13 00:38:14;;;;;;;14.83;3.77;;;8.90;82.00;;;;;;5073049;28;20174;-65
2022/04/13 00:40:42;;;;;;;6.07;4.07;;;8.90;82.30;;;;;;5072065;28;20190;-65
2022/04/13 00:43:08;;;;;;;5.57;3.70;;;8.80;82.70;;;;;;5072956;28;20197;-65
2022/04/13 00:45:34;;;;;;;4.70;3.63;;;8.80;82.80;;;;;;5073233;28;20436;-65
2022/04/13 00:48:03;;;;;;;4.13;3.23;;;8.80;83.10;;;;;;5072929;28;20163;-66
2022/04/13 00:50:28;;;;;;;5.17;3.90;;;8.80;83.40;;;;;;5072606;28;20417;-66
2022/04/13 00:52:56;;;;;;;7.07;3.40;;;8.70;83.60;;;;;;5073057;28;20438;-66
2022/04/13 00:55:24;;;;;;;7.30;3.90;;;8.70;84.00;;;;;;5072838;28;20170;-66
2022/04/13 00:57:51;;;;;;;6.33;3.17;;;8.60;84.00;;;;;;5072788;28;20496;-66
2022/04/13 01:00:19;;;;;;;5.80;4.07;;;8.60;84.40;;;;;;5072679;28;20463;-65
2022/04/13 01:02:46;;;;;;;4.47;3.77;;;8.60;84.60;;;;;;5072504;28;20425;-65
2022/04/13 01:05:12;;;;;;;4.60;3.10;;;8.60;85.00;;;;;;5072414;28;20419;-65
2022/04/13 01:07:40;;;;;;;6.77;3.80;;;8.50;85.10;;;;;;5072410;28;20401;-65
2022/04/13 01:10:07;;;;;;;5.70;4.33;;;8.50;85.30;;;;;;5072533;28;20404;-65
2022/04/13 01:12:36;;;;;;;4.27;3.20;;;8.50;86.00;;;;;;5072381;28;20510;-65
2022/04/13 01:15:03;;;;;;;5.00;3.60;;;8.50;86.00;;;;;;5071141;28;20926;-66
2022/04/13 01:17:28;;;;;;;5.43;3.50;;;8.50;86.20;;;;;;5072352;28;20481;-65
2022/04/13 01:19:54;;;;;;;4.03;3.63;;;8.40;86.40;;;;;;5071984;28;20396;-65
2022/04/13 01:22:25;;;;;;;6.13;3.33;;;8.40;86.70;;;;;;5072256;28;20203;-65
2022/04/13 01:24:51;;;;;;;5.73;3.27;;;8.40;86.60;;;;;;5072008;28;20459;-65
2022/04/13 01:27:17;;;;;;;5.10;3.60;;;8.40;87.40;;;;;;5071815;28;20911;-65
2022/04/13 01:29:44;;;;;;;6.87;3.27;;;8.30;87.50;;;;;;5072021;28;20447;-65
2022/04/13 01:32:11;;;;;;;7.00;3.30;;;8.30;87.70;;;;;;5071893;28;20202;-65
2022/04/13 01:34:37;;;;;;;4.83;3.57;;;8.30;88.40;;;;;;5071901;28;20519;-65
2022/04/13 01:37:04;;;;;;;4.10;3.20;;;8.20;88.50;;;;;;5071755;28;20860;-65
2022/04/13 01:39:29;;;;;;;6.80;4.70;;;8.20;89.00;;;;;;5071581;28;20515;-65
2022/04/13 01:41:55;;;;;;;6.27;4.73;;;8.20;89.10;;;;;;5071264;28;20424;-65
2022/04/13 01:44:20;;;;;;;6.73;5.60;;;8.20;89.50;;;;;;5071545;28;20261;-65
2022/04/13 01:46:46;;;;;;;4.13;3.23;;;8.10;89.60;;;;;;5071527;28;20182;-66
2022/04/13 01:49:11;;;;;;;6.13;3.60;;;8.20;89.90;;;;;;5069259;28;20249;-65
2022/04/13 01:51:37;;;;;;;7.60;4.50;;;8.10;90.00;;;;;;5070964;28;20210;-65
2022/04/13 01:54:03;;;;;;;3.30;3.00;;;8.10;90.10;;;;;;5071437;28;20200;-65
2022/04/13 01:56:28;;;;;;;4.43;3.70;;;8.10;90.30;;;;;;5071387;28;20534;-65
2022/04/13 01:58:53;;;;;;;4.03;3.30;;;8.10;90.30;;;;;;5071273;28;20197;-66
2022/04/13 02:01:19;;;;;;;5.03;3.03;;;8.00;90.50;;;;;;5071188;28;20289;-67
2022/04/13 02:03:45;;;;;;;4.57;3.50;;;8.00;90.80;;;;;;5071379;28;20166;-66
2022/04/13 02:06:10;;;;;;;9.07;3.63;;;7.90;90.70;;;;;;5071365;28;20601;-67
2022/04/13 02:08:36;;;;;;;6.20;4.30;;;7.90;90.90;;;;;;5071650;28;20277;-66
2022/04/13 02:11:03;;;;;;;9.77;4.63;;;7.90;91.00;;;;;;5071452;28;20186;-67
2022/04/13 02:13:28;;;;;;;5.60;4.00;;;7.90;91.10;;;;;;5071203;28;20178;-66
2022/04/13 02:15:53;;;;;;;6.30;3.97;;;7.90;91.30;;;;;;5071266;28;20396;-66
2022/04/13 02:18:19;;;;;;;5.07;3.20;;;7.90;91.30;;;;;;5071247;28;20506;-66
2022/04/13 02:20:44;;;;;;;4.93;4.23;;;7.90;91.70;;;;;;5071079;28;20202;-65
2022/04/13 02:23:10;;;;;;;4.97;3.90;;;7.80;91.50;;;;;;5070911;28;20171;-66
2022/04/13 02:25:35;;;;;;;5.30;4.07;;;7.80;91.60;;;;;;5070641;28;20177;-66
2022/04/13 02:28:02;;;;;;;4.23;3.73;;;7.80;91.70;;;;;;5070747;28;20174;-66
2022/04/13 02:30:28;;;;;;;4.27;3.87;;;7.80;91.90;;;;;;5070496;28;20196;-65
2022/04/13 02:32:53;;;;;;;5.93;4.00;;;7.70;92.00;;;;;;5070848;28;20404;-65
2022/04/13 02:35:19;;;;;;;5.30;3.60;;;7.70;92.20;;;;;;5070760;28;20578;-66
2022/04/13 02:37:44;;;;;;;7.37;3.57;;;7.70;92.40;;;;;;5070981;28;20167;-65
2022/04/13 02:40:12;;;;;;;3.70;3.40;;;7.60;92.50;;;;;;5070936;28;20521;-65
2022/04/13 02:42:37;;;;;;;5.77;4.13;;;7.60;92.70;;;;;;5071555;28;20599;-65
2022/04/13 02:45:04;;;;;;;3.70;3.40;;;7.60;92.90;;;;;;5071442;28;20440;-65
2022/04/13 02:47:31;;;;;;;4.70;3.60;;;7.60;92.90;;;;;;5071204;28;20220;-66
2022/04/13 02:49:57;;;;;;;5.97;4.40;;;7.60;93.10;;;;;;5060253;28;20463;-65
2022/04/13 02:52:28;;;;;;;5.50;4.73;;;7.60;93.20;;;;;;5049279;28;20855;-65
2022/04/13 02:54:54;;;;;;;5.70;4.53;;;7.50;93.30;;;;;;5050082;28;20179;-65
2022/04/13 02:57:19;;;;;;;5.20;4.17;;;7.50;93.40;;;;;;5050649;28;20418;-65
2022/04/13 02:59:46;;;;;;;7.80;3.73;;;7.50;93.50;;;;;;5051332;28;20836;-66
2022/04/13 03:02:14;;;;;;;6.80;4.77;;;7.50;93.50;;;;;;5050821;28;20266;-66
2022/04/13 03:04:42;;;;;;;5.40;3.63;;;7.50;93.70;;;;;;5053293;28;20417;-65
2022/04/13 03:07:09;;;;;;;4.13;3.37;;;7.50;93.80;;;;;;5054558;28;20405;-65
2022/04/13 03:09:34;;;;;;;5.87;4.83;;;7.50;93.90;;;;;;5054264;28;20822;-65
2022/04/13 03:12:00;;;;;;;6.50;5.33;;;7.40;94.00;;;;;;5054096;28;20457;-66
2022/04/13 03:14:26;;;;;;;8.73;3.90;;;7.40;94.20;;;;;;5054307;28;20293;-65
2022/04/13 03:16:51;;;;;;;6.33;4.87;;;7.40;94.30;;;;;;5054457;28;20159;-66
2022/04/13 03:19:17;;;;;;;5.13;4.70;;;7.40;94.40;;;;;;5054380;28;20436;-66
2022/04/13 03:21:42;;;;;;;5.10;4.60;;;7.40;94.50;;;;;;5073948;23;20391;-70
2022/04/13 03:24:08;;;;;;;4.80;4.23;;;7.30;94.70;;;;;;5055018;28;20185;-70
2022/04/13 03:26:34;;;;;;;7.67;4.10;;;7.30;94.80;;;;;;5055372;28;20258;-69
2022/04/13 03:28:59;;;;;;;3.90;3.40;;;7.30;95.00;;;;;;5055283;28;20229;-69
2022/04/13 03:31:24;;;;;;;5.20;3.97;;;7.30;95.00;;;;;;5055113;28;20221;-70
2022/04/13 03:33:50;;;;;;;6.73;4.13;;;7.30;95.10;;;;;;5055143;28;20163;-70
2022/04/13 03:36:17;;;;;;;7.87;6.17;;;7.20;95.30;;;;;;5055167;28;20735;-70
2022/04/13 03:38:42;;;;;;;4.80;3.77;;;7.20;95.50;;;;;;5054910;28;20160;-70
2022/04/13 03:41:08;;;;;;;5.40;3.60;;;7.20;95.60;;;;;;5054983;28;20409;-69
2022/04/13 03:43:33;;;;;;;4.93;3.53;;;7.20;95.70;;;;;;5054820;28;20209;-69
2022/04/13 03:45:58;;;;;;;5.43;4.13;;;7.20;95.80;;;;;;5054837;28;20182;-69
2022/04/13 03:48:24;;;;;;;8.00;3.53;;;7.10;96.00;;;;;;5054892;28;20171;-70
2022/04/13 03:50:50;;;;;;;4.87;4.07;;;7.10;96.00;;;;;;5053427;28;20198;-69
2022/04/13 03:53:16;;;;;;;3.80;3.50;;;7.10;96.10;;;;;;5054512;28;20267;-70
2022/04/13 03:55:41;;;;;;;3.77;3.30;;;7.10;96.20;;;;;;5054644;28;20617;-69
2022/04/13 03:58:06;;;;;;;5.83;3.40;;;7.10;96.30;;;;;;5054677;28;20413;-70
2022/04/13 04:00:32;;;;;;;7.70;4.23;;;7.10;96.40;;;;;;5054764;28;20195;-69
2022/04/13 04:02:57;;;;;;;3.63;3.33;;;7.10;96.50;;;;;;5054606;28;20198;-69
2022/04/13 04:05:23;;;;;;;9.57;4.17;;;7.10;96.50;;;;;;5054394;28;20583;-69
2022/04/13 04:07:49;;;;;;;4.23;3.03;;;7.10;96.60;;;;;;5054353;28;20174;-69
2022/04/13 04:10:14;;;;;;;5.57;4.13;;;7.10;96.70;;;;;;5054507;28;20191;-69
2022/04/13 04:12:41;;;;;;;8.47;4.20;;;7.10;96.60;;;;;;5054440;28;20824;-70
2022/04/13 04:15:09;;;;;;;4.60;3.37;;;7.10;96.80;;;;;;5053112;28;20641;-69
2022/04/13 04:17:35;;;;;;;5.27;4.30;;;7.10;96.90;;;;;;5054475;28;20836;-69
2022/04/13 04:20:01;;;;;;;6.13;4.43;;;7.10;96.90;;;;;;5054262;28;20437;-70
2022/04/13 04:22:26;;;;;;;5.83;3.90;;;7.10;96.90;;;;;;5053106;28;20488;-70
2022/04/13 04:24:53;;;;;;;3.97;3.17;;;7.10;97.00;;;;;;5053062;28;20238;-70
2022/04/13 04:27:19;;;;;;;5.57;4.70;;;7.10;97.40;;;;;;5053184;28;20178;-69
2022/04/13 04:29:44;;;;;;;5.30;3.73;;;7.10;97.10;;;;;;5052947;28;20961;-69
2022/04/13 04:32:10;;;;;;;8.10;4.13;;;7.10;97.60;;;;;;5052747;28;20198;-70
2022/04/13 04:34:35;;;;;;;7.23;4.73;;;7.10;97.10;;;;;;5052870;28;20491;-69
2022/04/13 04:37:01;;;;;;;4.37;4.03;;;7.10;97.20;;;;;;5052802;28;20167;-70
2022/04/13 04:39:26;;;;;;;4.27;3.20;;;7.20;97.20;;;;;;5054061;28;20182;-69
2022/04/13 04:41:52;;;;;;;8.77;4.17;;;7.10;97.20;;;;;;5053236;28;20198;-70
2022/04/13 04:44:17;;;;;;;2.83;2.33;;;7.20;97.30;;;;;;5052971;28;20264;-70
2022/04/13 04:46:43;;;;;;;5.13;4.13;;;7.20;97.30;;;;;;5052754;28;20502;-70
2022/04/13 04:49:08;;;;;;;6.57;3.30;;;7.20;97.30;;;;;;5053510;28;20186;-70
2022/04/13 04:51:34;;;;;;;6.10;4.17;;;7.30;97.30;;;;;;5052553;28;20205;-70
2022/04/13 04:54:00;;;;;;;7.80;4.73;;;7.30;97.30;;;;;;5053569;28;20163;-69
2022/04/13 04:56:26;;;;;;;4.00;3.53;;;7.40;97.20;;;;;;5053738;28;20182;-70
2022/04/13 04:58:51;;;;;;;6.53;3.90;;;7.40;97.20;;;;;;5053960;28;20785;-70
2022/04/13 05:01:17;;;;;;;4.20;3.73;;;7.40;97.20;;;;;;5053092;28;20979;-71
2022/04/13 05:03:48;;;;;;;10.73;4.07;;;7.40;97.10;;;;;;5053037;28;20179;-70
2022/04/13 05:06:18;;;;;;;4.10;3.80;;;7.50;97.00;;;;;;5052462;28;20429;-70
2022/04/13 05:08:44;;;;;;;7.83;3.70;;;7.50;97.00;;;;;;5052606;28;20924;-70
2022/04/13 05:11:12;;;;;;;4.27;3.87;;;7.60;97.00;;;;;;5052429;28;20459;-70
2022/04/13 05:13:38;;;;;;;8.77;5.17;;;7.70;97.00;;;;;;5052470;28;20175;-69
2022/04/13 05:16:04;;;;;;;7.63;3.73;;;7.60;96.90;;;;;;5052363;28;20393;-71
2022/04/13 05:18:30;;;;;;;8.10;3.63;;;7.70;96.80;;;;;;5052395;28;20413;-70
2022/04/13 05:20:56;;;;;;;6.67;3.87;;;7.70;96.80;;;;;;5015425;28;1046758;-71
2022/04/13 05:23:21;;;;;;;5.77;3.40;;;7.80;96.70;;;;;;5053153;28;20400;-69
2022/04/13 05:25:47;;;;;;;8.13;4.93;;;7.80;96.70;;;;;;5051720;28;20171;-69
2022/04/13 05:28:12;;;;;;;7.23;4.50;;;7.90;96.60;;;;;;5052915;28;20694;-71
2022/04/13 05:30:38;;;;;;;5.40;3.60;;;7.90;96.60;;;;;;5053012;28;20203;-70
2022/04/13 05:33:05;;;;;;;6.73;3.80;;;8.00;96.80;;;;;;5052825;28;20245;-69
2022/04/13 05:35:31;;;;;;;3.50;3.20;;;8.20;96.30;;;;;;5052749;28;20159;-68
2022/04/13 05:37:56;;;;;;;5.27;4.00;;;8.20;96.20;;;;;;5052970;28;20497;-70
2022/04/13 05:40:23;;;;;;;3.90;3.17;;;8.40;96.10;;;;;;5053244;28;20167;-69
2022/04/13 05:42:50;;;;;;;4.40;4.00;;;8.40;95.90;;;;;;5052816;28;20703;-70
2022/04/13 05:45:16;;;;;;;4.10;3.20;;;8.50;95.90;;;;;;5052687;28;20492;-71
2022/04/13 05:47:42;;;;;;;3.67;3.37;;;8.70;95.80;;;;;;5052701;28;20453;-71
2022/04/13 05:50:09;;;;;;;4.17;3.00;;;8.90;94.90;;;;;;5052581;28;20420;-69
2022/04/13 05:52:35;;;;;;;6.33;4.03;;;9.20;94.70;;;;;;5052502;28;20465;-70
2022/04/13 05:55:00;;;;;;;4.97;4.00;;;9.20;94.90;;;;;;5051194;28;20558;-70
2022/04/13 05:57:26;;;;;;;4.23;3.80;;;9.70;94.50;;;;;;5052613;28;20745;-70
2022/04/13 05:59:51;;;;;;;6.13;4.07;;;10.20;92.90;;;;;;5052584;28;20163;-70
2022/04/13 06:02:17;;;;;;;5.70;4.30;;;10.10;92.00;;;;;;5052307;28;20270;-69
2022/04/13 06:04:42;;;;;;;10.17;4.60;;;10.40;92.30;;;;;;5053440;28;20177;-68
2022/04/13 06:07:08;;;;;;;4.30;3.90;;;10.60;91.80;;;;;;5051134;28;20167;-70
2022/04/13 06:09:34;;;;;;;6.10;4.70;;;11.10;91.40;;;;;;5052317;28;20183;-69
2022/04/13 06:11:59;;;;;;;6.70;5.47;;;11.10;90.50;;;;;;5052051;28;20596;-70
2022/04/13 06:14:25;;;;;;;5.07;3.53;;;11.20;91.00;;;;;;5052158;28;20794;-70
2022/04/13 06:16:50;;;;;;;7.80;4.60;;;11.70;90.30;;;;;;5052135;28;20179;-73
2022/04/13 06:19:16;;;;;;;9.70;5.43;;;12.20;89.20;;;;;;5052133;28;20174;-70
2022/04/13 06:21:41;;;;;;;10.93;4.70;;;12.00;89.00;;;;;;5052144;28;20198;-70
2022/04/13 06:24:10;;;;;;;5.90;4.50;;;12.40;87.30;;;;;;5052105;28;20202;-69
2022/04/13 06:26:35;;;;;;;5.90;3.83;;;12.60;86.20;;;;;;5051241;28;20174;-72
2022/04/13 06:29:01;;;;;;;7.67;4.60;;;12.20;87.30;;;;;;5052272;28;20962;-71
2022/04/13 06:31:26;;;;;;;8.50;4.40;;;12.80;86.00;;;;;;5051977;28;20603;-69
2022/04/13 06:33:52;;;;;;;6.37;5.07;;;13.30;85.00;;;;;;5052293;28;20171;-69
2022/04/13 06:36:18;;;;;;;6.43;4.97;;;13.20;84.60;;;;;;5052633;28;20168;-70
2022/04/13 06:38:44;;;;;;;7.23;4.87;;;13.70;81.80;;;;;;5050009;28;20167;-69
2022/04/13 06:41:10;;;;;;;4.50;3.70;;;14.00;82.80;;;;;;5052075;28;20959;-71
2022/04/13 06:43:36;;;;;;;7.27;4.60;;;13.70;81.00;;;;;;5053013;28;20176;-70
2022/04/13 06:46:01;;;;;;;11.10;4.50;;;14.50;80.50;;;;;;5056100;28;20501;-70
2022/04/13 06:48:27;;;;;;;6.60;4.10;;;14.70;78.30;;;;;;5053636;28;20816;-70
2022/04/13 06:50:52;;;;;;;7.90;5.20;;;14.70;79.50;;;;;;5052700;28;20173;-72
2022/04/13 06:53:18;;;;;;;6.40;5.20;;;14.80;77.80;;;;;;5052300;28;20162;-71
2022/04/13 06:55:45;;;;;;;5.47;4.30;;;14.90;77.50;;;;;;5051848;28;20251;-69
2022/04/13 06:58:11;;;;;;;5.37;4.83;;;15.00;77.90;;;;;;5051859;28;20166;-69
2022/04/13 07:00:36;;;;;;;6.47;5.10;;;14.90;77.30;;;;;;5051631;28;20410;-71
2022/04/13 07:03:02;;;;;;;5.67;4.53;;;15.20;76.00;;;;;;5051454;28;20250;-70
2022/04/13 07:05:28;;;;;;;6.80;4.47;;;15.60;75.40;;;;;;5051527;28;20160;-69
2022/04/13 07:07:57;;;;;;;10.90;5.67;;;15.60;75.00;;;;;;5051724;28;20166;-70
2022/04/13 07:10:23;;;;;;;6.10;4.43;;;15.30;75.20;;;;;;5051563;28;20493;-70
2022/04/13 07:12:49;;;;;;;8.57;5.30;;;16.20;73.80;;;;;;5051315;28;21014;-69
2022/04/13 07:15:17;;;;;;;5.83;5.20;;;16.40;72.70;;;;;;5051306;28;20530;-69
2022/04/13 07:17:43;;;;;;;7.57;5.30;;;16.20;74.00;;;;;;5051749;28;20170;-70
2022/04/13 07:20:09;;;;;;;6.03;4.37;;;17.10;71.10;;;;;;5051353;28;20408;-70
2022/04/13 07:22:45;;;;;;;5.30;4.80;;;16.50;70.00;;;;;;5051080;28;20450;-70
2022/04/13 07:25:12;;;;;;;4.50;3.80;;;17.20;69.10;;;;;;5051463;28;20772;-69
2022/04/13 07:27:37;;;;;;;6.93;4.50;;;17.60;68.00;;;;;;5051323;28;20421;-70
2022/04/13 07:30:03;;;;;;;4.63;4.23;;;16.30;69.80;;;;;;5051376;28;20411;-70
2022/04/13 07:32:29;;;;;;;5.60;3.83;;;17.20;69.50;;;;;;5049981;28;20200;-69
2022/04/13 07:34:54;;;;;;;5.30;4.07;;;17.40;66.70;;;;;;5051274;28;20513;-68
2022/04/13 07:37:20;;;;;;;7.23;4.63;;;17.00;68.10;;;;;;5051590;28;20634;-69
2022/04/13 07:39:45;;;;;;;5.63;4.33;;;17.20;67.40;;;;;;5051497;28;20168;-69
2022/04/13 07:42:11;;;;;;;6.23;4.53;;;17.90;66.70;;;;;;5051197;28;20206;-69
2022/04/13 07:44:36;;;;;;;6.73;4.47;;;17.50;66.00;;;;;;5051323;28;20168;-69
2022/04/13 07:47:02;;;;;;;6.73;4.97;;;17.90;65.40;;;;;;5051141;28;20588;-69
2022/04/13 07:49:27;;;;;;;4.77;3.90;;;18.00;63.90;;;;;;5052042;28;20180;-69
2022/04/13 07:51:52;;;;;;;4.73;4.23;;;18.20;64.40;;;;;;5054619;28;20212;-69
2022/04/13 07:54:18;;;;;;;6.60;5.30;;;18.20;64.50;;;;;;5055425;28;20275;-69
2022/04/13 07:56:43;;;;;;;6.43;4.77;;;18.90;62.30;;;;;;5056306;28;20235;-69
2022/04/13 07:59:09;;;;;;;5.47;4.97;;;18.40;63.90;;;;;;5056991;28;20175;-67
2022/04/13 08:01:34;;;;;;;4.67;4.10;;;18.30;63.30;;;;;;5054992;28;20543;-69
2022/04/13 08:04:00;;;;;;;5.97;4.43;;;18.30;63.20;;;;;;5054925;28;20270;-69
2022/04/13 08:06:25;;;;;;;7.20;4.73;;;17.70;62.70;;;;;;5054522;28;20174;-69
2022/04/13 08:08:51;;;;;;;5.53;4.90;;;17.50;62.90;;;;;;5054626;28;20169;-70
2022/04/13 08:11:16;;;;;;;5.97;4.73;;;16.70;65.30;;;;;;5054485;28;20545;-69
2022/04/13 08:13:41;;;;;;;8.27;4.40;;;17.30;65.20;;;;;;5054792;28;20236;-68
2022/04/13 08:16:07;;;;;;;6.40;4.60;;;17.50;64.50;;;;;;5054553;28;20161;-69
2022/04/13 08:18:33;;;;;;;6.20;4.33;;;17.70;63.50;;;;;;5054672;28;20527;-70
2022/04/13 08:20:59;;;;;;;6.47;4.43;;;16.90;65.80;;;;;;5054433;28;20201;-70
2022/04/13 08:23:24;;;;;;;5.90;4.20;;;17.50;64.70;;;;;;5053240;28;20659;-70
2022/04/13 08:25:50;;;;;;;8.60;4.07;;;17.30;64.80;;;;;;5054545;28;20430;-69
2022/04/13 08:28:15;;;;;;;5.83;4.80;;;17.90;63.10;;;;;;5054144;28;20636;-69
2022/04/13 08:30:41;;;;;;;5.90;4.43;;;17.80;62.80;;;;;;5054841;28;20168;-70
2022/04/13 08:33:06;;;;;;;6.37;4.10;;;18.20;63.40;;;;;;5055340;28;20237;-69
2022/04/13 08:35:32;;;;;;;6.17;4.67;;;18.40;62.30;;;;;;5054917;28;20186;-69
2022/04/13 08:37:57;;;;;;;7.83;4.27;;;18.40;61.60;;;;;;5054305;28;20175;-70
2022/04/13 08:40:23;;;;;;;6.73;4.47;;;18.70;60.70;;;;;;5054039;28;20172;-69
2022/04/13 08:43:04;;;;;;;5.77;4.53;;;19.00;60.30;;;;;;5053692;28;20658;-70
2022/04/13 08:45:33;;;;;;;8.57;4.60;;;18.40;61.80;;;;;;5053858;28;20182;-69
2022/04/13 08:48:01;;;;;;;7.13;4.00;;;18.20;61.20;;;;;;5054157;28;20409;-70
2022/04/13 08:50:30;;;;;;;6.47;5.07;;;18.00;62.70;;;;;;5053782;28;20397;-69
2022/04/13 08:53:02;;;;;;;4.93;4.43;;;18.20;62.90;;;;;;5053571;28;20457;-70
2022/04/13 08:55:29;;;;;;;5.77;4.60;;;18.50;61.50;;;;;;5054143;28;20460;-69
2022/04/13 08:58:19;;;;;;;5.80;4.27;;;18.70;61.70;;;;;;5054264;28;20872;-70
2022/04/13 09:00:49;;;;;;;6.90;5.07;;;19.30;61.60;;;;;;5053019;28;20404;-69
2022/04/13 09:03:33;;;;;;;6.90;4.53;;;19.00;59.80;;;;;;5053187;28;20800;-68
2022/04/13 09:05:59;;;;;;;5.40;4.40;;;18.90;60.20;;;;;;5053511;28;20424;-69
2022/04/13 09:08:52;;;;;;;5.30;4.80;;;19.00;59.60;;;;;;5053546;28;20408;-69
2022/04/13 09:11:21;;;;;;;5.30;4.00;;;19.20;61.10;;;;;;5053458;28;20736;-69
2022/04/13 09:13:47;;;;;;;8.63;5.40;;;19.30;59.90;;;;;;5053647;28;20871;-68
2022/04/13 09:16:13;;;;;;;6.97;4.10;;;19.70;59.50;;;;;;5053191;28;20441;-70
2022/04/13 09:18:39;;;;;;;6.50;3.93;;;20.20;58.10;;;;;;5053513;28;20886;-69
2022/04/13 09:21:05;;;;;;;10.70;4.50;;;19.70;58.80;;;;;;5053217;28;20640;-69
2022/04/13 09:23:31;;;;;;;5.33;4.20;;;20.00;59.10;;;;;;5057362;22;20493;-65
2022/04/13 09:25:58;;;;;;;4.90;4.33;;;19.90;58.40;;;;;;5032712;28;20240;-65
2022/04/13 09:28:25;;;;;;;6.40;4.43;;;19.70;59.40;;;;;;5032755;28;20446;-65
2022/04/13 09:30:52;;;;;;;6.30;3.80;;;19.70;58.60;;;;;;5032497;28;20410;-65
2022/04/13 09:33:18;;;;;;;7.17;4.53;;;19.80;59.10;;;;;;5032315;28;20949;-66
2022/04/13 09:35:43;;;;;;;4.83;4.20;;;19.90;59.00;;;;;;5032199;28;20396;-65
2022/04/13 09:38:09;;;;;;;6.90;4.87;;;19.70;59.40;;;;;;5032103;28;20425;-65
2022/04/13 09:40:34;;;;;;;7.60;5.00;;;19.90;58.90;;;;;;5031950;28;20164;-68
2022/04/13 09:43:17;;;;;;;5.40;4.60;;;20.30;58.50;;;;;;5032005;28;20208;-66
2022/04/13 09:45:49;;;;;;;6.27;4.40;;;20.40;58.20;;;;;;5032363;28;20165;-68
2022/04/13 09:48:19;;;;;;;5.03;3.93;;;20.50;58.90;;;;;;5032885;28;20802;-66
2022/04/13 09:50:46;;;;;;;5.27;4.33;;;19.60;58.70;;;;;;5031867;28;20472;-66
2022/04/13 09:53:13;;;;;;;4.97;3.93;;;19.60;59.70;;;;;;5031874;28;20440;-66
2022/04/13 09:55:51;;;;;;;5.53;4.00;;;19.50;58.90;;;;;;5031935;28;20402;-66
2022/04/13 09:58:22;;;;;;;6.90;4.67;;;19.70;59.20;;;;;;5031784;28;20882;-66
2022/04/13 10:00:50;;;;;;;4.70;4.20;;;19.20;58.50;;;;;;5032084;28;20429;-68
2022/04/13 10:03:18;;;;;;;8.20;5.07;;;18.80;59.30;;;;;;5031638;28;20913;-66
2022/04/13 10:05:51;;;;;;;6.10;4.37;;;19.00;59.80;;;;;;5031620;28;20412;-66
2022/04/13 10:08:22;;;;;;;5.70;3.80;;;19.20;59.40;;;;;;5031858;28;20412;-66
2022/04/13 10:10:49;;;;;;;6.60;4.47;;;19.20;59.70;;;;;;5031941;28;20780;-66
2022/04/13 10:13:40;;;;;;;6.57;4.60;;;18.70;59.50;;;;;;5031406;28;20415;-66
2022/04/13 10:16:08;;;;;;;11.23;4.40;;;18.70;60.30;;;;;;5031660;28;20407;-66
2022/04/13 10:18:56;;;;;;;6.73;4.17;;;19.00;60.00;;;;;;5032022;28;20702;-66
2022/04/13 10:21:45;;;;;;;7.10;4.47;;;19.10;59.60;;;;;;5031749;28;20475;-66
2022/04/13 10:24:26;;;;;;;5.10;3.93;;;19.10;59.70;;;;;;5032002;28;20736;-66
2022/04/13 10:27:17;;;;;;;7.20;4.60;;;19.20;59.70;;;;;;5031544;28;20413;-66
2022/04/13 10:29:48;;;;;;;8.73;5.57;;;19.00;59.80;;;;;;5031445;28;20407;-66
2022/04/13 10:32:24;;;;;;;9.97;4.23;;;19.20;60.40;;;;;;5031333;28;20518;-66
2022/04/13 10:34:52;;;;;;;5.47;4.10;;;19.00;59.70;;;;;;5031282;28;20399;-66
2022/04/13 10:37:23;;;;;;;6.40;4.77;;;19.20;60.00;;;;;;5031324;28;20418;-66
2022/04/13 10:39:49;;;;;;;5.10;4.07;;;19.30;60.50;;;;;;5031414;28;20445;-66
2022/04/13 10:42:17;;;;;;;7.33;4.63;;;19.30;59.60;;;;;;5031265;28;20478;-66
2022/04/13 10:45:01;;;;;;;5.10;4.60;;;19.10;59.60;;;;;;5031196;28;20402;-67
2022/04/13 10:47:38;;;;;;;8.70;4.47;;;19.20;60.20;;;;;;5031263;28;20452;-67
2022/04/13 10:50:06;;;;;;;9.47;5.47;;;19.40;59.80;;;;;;5031618;28;20403;-67
2022/04/13 10:52:56;;;;;;;6.60;3.50;;;19.20;59.90;;;;;;5031541;28;20464;-67
2022/04/13 10:55:23;;;;;;;6.13;3.77;;;19.10;60.90;;;;;;5031335;28;20422;-67
2022/04/13 10:58:13;;;;;;;4.80;4.03;;;19.30;61.10;;;;;;5031201;28;20414;-67
2022/04/13 11:00:43;;;;;;;6.13;4.00;;;19.40;60.30;;;;;;5031574;28;20393;-67
2022/04/13 11:03:10;;;;;;;4.93;3.63;;;19.30;60.70;;;;;;5031433;28;20761;-67
2022/04/13 11:05:40;;;;;;;6.93;3.80;;;19.30;60.70;;;;;;5031423;28;20890;-67
2022/04/13 11:08:14;;;;;;;7.80;4.80;;;19.50;60.70;;;;;;5031362;28;20394;-67
2022/04/13 11:10:47;;;;;;;9.07;4.70;;;19.30;61.10;;;;;;5031320;28;20406;-67
2022/04/13 11:13:14;;;;;;;6.90;4.50;;;19.30;60.50;;;;;;5030954;28;20422;-67
2022/04/13 11:15:45;;;;;;;7.70;4.80;;;19.60;61.00;;;;;;5031182;28;20440;-67
2022/04/13 11:18:18;;;;;;;5.33;3.73;;;19.60;60.20;;;;;;5031391;28;20398;-67
2022/04/13 11:20:59;;;;;;;6.17;4.07;;;19.30;60.30;;;;;;5031052;28;20892;-67
2022/04/13 11:23:50;;;;;;;5.03;3.77;;;19.40;60.70;;;;;;5030836;28;20563;-67
2022/04/13 11:26:24;;;;;;;5.10;4.00;;;19.30;60.10;;;;;;5034662;28;20383;-68
2022/04/13 11:29:09;;;;;;;5.03;2.77;;;19.30;61.00;;;;;;5035228;28;20396;-67
2022/04/13 11:32:04;;;;;;;6.83;4.00;;;19.20;60.00;;;;;;5034493;28;20464;-66
2022/04/13 11:34:35;;;;;;;6.20;4.80;;;19.20;60.00;;;;;;5035108;28;20402;-67
2022/04/13 11:37:03;;;;;;;5.10;3.60;;;19.50;60.20;;;;;;5034715;28;20747;-67
2022/04/13 11:39:48;;;;;;;4.87;4.33;;;19.60;60.20;;;;;;5034663;28;20410;-67
2022/04/13 11:42:37;;;;;;;5.23;3.57;;;19.90;60.00;;;;;;5034637;28;20821;-67
2022/04/13 11:45:03;;;;;;;4.33;3.50;;;19.90;59.60;;;;;;5034581;28;20406;-67
2022/04/13 11:47:43;;;;;;;12.13;4.10;;;19.90;59.70;;;;;;5034554;28;20409;-66
2022/04/13 11:50:20;;;;;;;9.10;4.37;;;20.00;59.60;;;;;;5034388;28;20383;-66
2022/04/13 11:52:58;;;;;;;7.13;4.00;;;20.30;59.80;;;;;;5034209;28;20426;-66
2022/04/13 11:55:30;;;;;;;4.33;2.90;;;20.30;59.20;;;;;;5034166;28;20819;-66
2022/04/13 11:58:05;;;;;;;6.43;4.43;;;20.60;59.30;;;;;;5034062;28;20400;-66
2022/04/13 12:00:50;;;;;;;4.03;3.40;;;20.60;58.40;;;;;;5034820;28;20387;-66
2022/04/13 12:03:24;;;;;;;4.10;3.57;;;20.40;58.40;;;;;;5034357;28;20436;-66
2022/04/13 12:05:52;;;;;;;4.17;3.30;;;20.40;58.30;;;;;;5034201;28;20407;-66
2022/04/13 12:08:38;;;;;;;7.90;3.73;;;20.40;58.60;;;;;;5034304;28;20408;-66
2022/04/13 12:11:08;;;;;;;5.10;3.63;;;20.40;58.60;;;;;;5033920;28;20395;-66
2022/04/13 12:13:47;;;;;;;6.27;4.70;;;20.40;58.20;;;;;;5033843;28;20469;-66
2022/04/13 12:16:19;;;;;;;11.67;3.60;;;20.30;58.20;;;;;;5033881;28;20395;-66
2022/04/13 12:18:44;;;;;;;4.63;3.13;;;20.40;58.70;;;;;;5034266;28;20816;-66
2022/04/13 12:21:12;;;;;;;5.60;3.37;;;20.30;58.40;;;;;;5033810;28;20451;-66
2022/04/13 12:23:39;;;;;;;4.30;2.87;;;20.40;58.60;;;;;;5033735;28;20193;-66
2022/04/13 12:26:06;;;;;;;6.93;3.63;;;20.50;58.80;;;;;;5033904;28;20407;-66
2022/04/13 12:28:32;;;;;;;4.30;3.70;;;20.60;58.40;;;;;;5033954;28;20438;-66
2022/04/13 12:31:03;;;;;;;4.53;3.10;;;20.70;58.40;;;;;;5033618;28;20447;-66
2022/04/13 12:33:30;;;;;;;7.60;3.30;;;20.90;57.80;;;;;;5033498;28;20188;-66
2022/04/13 12:36:01;;;;;;;4.07;3.10;;;21.10;58.40;;;;;;5032375;28;20400;-66
2022/04/13 12:38:43;;;;;;;6.67;3.23;;;21.10;58.10;;;;;;5033785;28;20461;-66
2022/04/13 12:41:13;;;;;;;5.80;3.17;;;21.30;58.10;;;;;;5033911;28;20452;-66
2022/04/13 12:43:51;;;;;;;4.57;3.23;;;21.20;58.00;;;;;;5033913;28;20834;-66
2022/04/13 12:46:18;;;;;;;3.67;2.57;;;21.40;58.00;;;;;;5033848;28;20471;-67
2022/04/13 12:48:50;;;;;;;4.33;3.33;;;21.50;56.90;;;;;;5033835;28;20750;-66
2022/04/13 12:51:16;;;;;;;4.00;2.80;;;21.70;57.00;;;;;;5033878;28;20439;-67
2022/04/13 12:53:56;;;;;;;2.90;2.30;;;21.70;55.90;;;;;;5033400;28;20506;-67
2022/04/13 12:56:26;;;;;;;5.60;4.43;;;21.90;56.30;;;;;;5033698;28;20408;-67